• Join FlightAware (Why Join?)
  • Login
  • US Flag 
04:05AM EDT


 

Airport Tracker/Info


-or-


 

Live Flight TrackerFlight Track Log ✈ N870DC ✈ 07-May-2013 ✈ KLBX - KBTR

Flight Track Log - Related Links

Times and Time Zones

All times are in EDT time to prevent confusion due to time zone crossing. See the N870DC flight status page for this flight to view local times or setup timezone preferences in your user account.

Time Position Orientation Groundspeed Altitude Reporting Facility
EDT Latitude Longitude Course Direction KTS MPH feet Rate Location/Type
06:13PM 29.0867 -95.4225 122° Southeast 218 251 3,000  Level Houston Center
06:14PM 29.1192 -95.3392 66° East 284 327 6,400 3,600 Climbing Houston Center
06:15PM 29.1669 -95.2642 54° Northeast 296 341 10,200 2,940 Climbing Houston Center
06:16PM 29.2203 -95.1733 56° Northeast 333 383 12,800 2,400 Climbing Houston Center
06:17PM 29.2758 -95.0814 55° Northeast 353 406 15,400 2,520 Climbing Houston Center
06:18PM 29.3369 -94.9803 55° Northeast 382 440 18,100 2,700 Climbing Houston Center
06:19PM 29.4119 -94.8564 55° Northeast 396 456 21,000 2,340 Climbing Houston Center
06:20PM 29.4769 -94.7483 55° Northeast 414 476 23,000 1,980 Climbing Houston Center
06:21PM 29.5444 -94.6358 55° Northeast 430 495 25,100 1,860 Climbing Houston Center
06:22PM 29.6147 -94.5183 55° Northeast 445 512 26,900 1,680 Climbing Houston Center
06:23PM 29.6781 -94.3575 66° East 474 545 28,600 1,500 Climbing Houston Center
06:25PM 29.7178 -94.2131 72° East 479 551 30,000 1,500 Climbing Houston Center
06:26PM 29.7608 -94.0603 72° East 486 559 31,700 1,440 Climbing Houston Center
06:27PM 29.8003 -93.9150 73° East 481 554 33,000 600 Climbing Houston Center
06:28PM 29.8414 -93.7667 72° East 488 562 33,000  Level Houston Center
06:29PM 29.8825 -93.6197 72° East 488 562 33,000  Level Houston Center
06:30PM 29.9294 -93.4436 73° East 485 558 33,000 -60 Level Houston Center
06:31PM 29.9694 -93.2986 72° East 483 556 32,900 -540 Descending Houston Center
06:32PM 30.0083 -93.1536 73° East 480 552 31,900 -960 Descending Houston Center
06:33PM 30.0461 -93.0119 73° East 468 539 31,000 -1,260 Descending Houston Center
06:34PM 30.0853 -92.8694 72° East 468 539 29,400 -2,280 Descending Houston Center
06:35PM 30.1319 -92.6950 73° East 474 545 26,400 -2,700 Descending Houston Center
06:36PM 30.1714 -92.5525 72° East 473 544 23,900 -2,400 Descending Houston Center
06:37PM 30.2072 -92.4181 73° East 452 520 21,600 -2,340 Descending Houston Center
06:38PM 30.2419 -92.2761 74° East 428 493 19,200 -1,800 Descending Houston Center
06:39PM 30.2742 -92.1522 73° East 412 474 18,000 -1,860 Descending Houston Center
06:40PM 30.3064 -92.0344 72° East 392 451 15,400 -2,460 Descending Houston Center
06:41PM 30.3350 -91.9242 73° East 366 421 13,000 -2,040 Descending Houston Center
06:42PM 30.3625 -91.8222 73° East 338 389 11,300 -1,800 Descending Houston Center
06:43PM 30.3906 -91.7114 74° East 305 351 9,400 -1,500 Descending Houston Center
06:44PM 30.4069 -91.6389 75° East 290 334 8,200 -1,500 Descending Houston Center
06:45PM 30.4225 -91.5342 80° East 275 316 6,400 -1,500 Descending Houston Center
06:46PM 30.4367 -91.4503 79° East 268 308 5,200 -1,140 Descending Houston Center
06:47PM 30.4514 -91.3636 79° East 272 313 4,100 6,660 Descending Houston Center
06:48PM 30.4689 -91.2825 76° East 268 308 19,000 14,400 Climbing Houston Center
06:50PM 30.5143 -91.1475 79° East  Level FlightAware Approximate
06:57PM 30.5167 -91.1333 79° East  Level FlightAware Approximate
06:58PM 30.5329 -91.1499 79° East  Level Estimated
06:59PM 30.5329 -91.1499 79° East  Level Estimated
07:00PM 30.5329 -91.1499 79° East  Level Estimated